AirNav   Air Wisconsin Up To $57,000 Bonus
 
 2042 users online  

HI24 HECO-Waiau Heliport
Honolulu, Hawaii, USA

GOING TO HONOLULU?


FAA INFORMATION EFFECTIVE 02 JANUARY 2020

Location

FAA Identifier: HI24
Lat/Long: 21-23-27.0000N 157-57-53.0000W
21-23.450000N 157-57.883333W
21.3908333,-157.9647222
(estimated)
Elevation: 6 ft. / 2 m (estimated)
Variation: 11E (1990)
From city: 6 miles W of HONOLULU, HI
Time zone: UTC -10 (year round; does not observe DST)
Zip code: 96782

Heliport Operations

Heliport use: Private use. Permission required prior to landing
Activation date: 10/1994
Control tower: no
ARTCC: HONOLULU CONTROL FACILITY CENTER
FSS: HONOLULU FLIGHT SERVICE STATION
Attendance: UNATNDD
Segmented circle: no
Lights: SS-SR

Heliport Communications

WX ASOS at HNL (5 nm SE): PHONE 808-836-0449
WX ASOS at JRF (8 nm SW): 119.8 (808-673-7454)

Nearby radio navigation aids

VOR radial/distance  VOR name  Freq  Var
HNLr328/5.3HONOLULU VORTAC114.8011E
CKHr286/16.5KOKO HEAD VORTAC113.9011E

 
NDB name  Hdg/Dist  Freq  Var  ID
EWABE039/6.124211EHN .... -.

Heliport Services

Runway Information

Helipad H1

Dimensions: 52 x 52 ft. / 16 x 16 m
Surface: asphalt
Runway edge lights: non-standard
STREET LIGHTS.
Traffic pattern: leftleft

Heliport Ownership and Management from official FAA records

Ownership: Privately-owned
Owner: HAWAIIAN ELECTRIC COMPANY
475 KAM HWY
PEARL CITY, HI 96782
Phone 808-543-4385
Manager: LAWRENCE ORNELLAS
475 KAM HWY
PEARL CITY, HI 96782
Phone 808-543-4245

Additional Remarks

A52-H1 30 FT LIGHT POLE MAUKA KKHD; 30 LIGHT POLE MAKUI EWA
FOR CD CTC HCF CENTER AT 808-840-6262

Instrument Procedures

There are no published instrument procedures at HI24.

Some nearby airports with instrument procedures:

PHNL - Daniel K Inouye International Airport (5 nm SE)
PHJR - Kalaeloa Airport (John Rodgers Field) (8 nm SW)
PHMK - Molokai Airport (51 nm E)
PHLU - Kalaupapa Airport (56 nm E)
PHNY - Lanai Airport (67 nm SE)
 
Loc | Ops | Rwys | IFR | FBO | Links
Com | Nav | Svcs | Stats | Notes
Area around HI24 (HECO-Waiau Heliport)
 
Road maps at: MapQuest Bing Google
 
Aerial photo
No photo
 
Sectional chart

 
Airport distance calculator
Flying to HECO-Waiau Heliport? Find the distance to fly.

From to HI24

Sunrise and sunset
Times for 27-Jan-2020
 Local
(UTC-10)
 Zulu
(UTC)
Morning civil twilight06:4816:48
Sunrise07:1217:12
Sunset18:1804:18
Evening civil twilight18:4104:41

Current date and time
Zulu (UTC)  27-Jan-2020 17:51:33
Local (UTC-10)  27-Jan-2020 07:51:33
 
METAR
PHNL 
4nm S 
271653Z 09003KT 10SM FEW025 FEW035 22/17 A3011 RMK AO2 SLP196 T02220172
PHHI 
5nm NW 
271721Z AUTO 00000KT 10SM SCT025 19/18 A3014 RMK AO2 SLP200 $
PHJR 
7nm SW 
271553Z 05003KT 10SM CLR 19/16 A3010 RMK AO2 SLP199 T01940161
PHNG 
11nm E 
271657Z 10007KT 10SM FEW042 OVC050 24/18 A3010 RMK AO2 PRESRR SLP188 T02390178 $
TAF
PHNL 
4nm S 
262141Z 2622/2724 08010G16KT P6SM FEW025 SCT050 FM270400 06006KT P6SM FEW025 SCT050 FM270800 34004KT P6SM FEW025
PHJR 
7nm SW 
261720Z 2618/2718 VRB03KT P6SM FEW030 FM262000 12009G15KT P6SM FEW030 SCT050 FM270000 VRB03KT P6SM FEW030 AMD NOT SKED
PHNG 
11nm E 
2621/2721 08008KT SCT025 SCT040 QNH3004INS TEMPO 2621/2603 11010G18KT BKN025 T26/2700Z T22/2714Z
NOTAMs
Click for the latest NOTAMs
NOTAMs are issued by the DoD/FAA and will open in a separate window not controlled by AirNav.

 

 
 

Would you like to see your business listed on this page?

 If your business provides an interesting product or service to pilots, flight crews, aircraft, or users of the HECO-Waiau Heliport, you should consider listing it here.  To start the listing process, click on the button below
 
Add a business
 

Other Pages about HECO-Waiau Heliport

Update a link
 
Copyright © AirNav, LLC. All rights reserved. Privacy Policy  Contact